createdAt,value
2023-04-11T00:02:18.333Z,5.86
2023-04-11T00:12:24.959Z,5.77
2023-04-11T00:22:32.470Z,5.73
2023-04-11T00:32:39.037Z,5.53
2023-04-11T00:42:45.504Z,5.57
2023-04-11T00:52:53.166Z,5.49
2023-04-11T01:02:59.880Z,5.61
2023-04-11T01:13:06.755Z,5.82
2023-04-11T01:23:14.544Z,5.89
2023-04-11T01:33:21.114Z,5.71
2023-04-11T01:43:27.706Z,5.68
2023-04-11T01:53:34.250Z,5.28
2023-04-11T02:03:41.177Z,5.40
2023-04-11T02:13:48.582Z,5.61
2023-04-11T02:23:55.126Z,5.45
2023-04-11T02:34:01.622Z,5.44
2023-04-11T02:44:08.111Z,4.94
2023-04-11T02:54:14.690Z,4.95
2023-04-11T03:04:21.306Z,4.66
2023-04-11T03:14:28.432Z,4.57
2023-04-11T03:24:34.942Z,4.30
2023-04-11T03:34:41.708Z,4.39
2023-04-11T03:44:48.603Z,4.32
2023-04-11T03:54:55.107Z,4.25
2023-04-11T04:05:01.941Z,4.46
2023-04-11T04:15:08.920Z,4.24
2023-04-11T04:25:17.100Z,4.21
2023-04-11T04:35:23.708Z,4.12
2023-04-11T04:45:30.225Z,4.07
2023-04-11T04:55:37.325Z,4.37
2023-04-11T05:05:43.773Z,4.45
2023-04-11T05:15:53.053Z,4.66
2023-04-11T05:25:59.558Z,4.98
2023-04-11T05:36:07.198Z,5.08
2023-04-11T05:46:14.200Z,5.38
2023-04-11T05:56:21.149Z,6.14
2023-04-11T06:06:27.585Z,6.74
2023-04-11T06:16:34.872Z,7.78
2023-04-11T06:26:41.399Z,8.04
2023-04-11T06:36:49.613Z,8.34
2023-04-11T06:46:56.560Z,8.40
2023-04-11T06:57:03.717Z,9.17
2023-04-11T07:07:10.201Z,9.17
2023-04-11T07:17:16.782Z,10.38
2023-04-11T07:27:24.661Z,10.29
2023-04-11T07:37:31.865Z,10.88
2023-04-11T07:47:38.358Z,11.32
2023-04-11T07:57:44.859Z,11.53
2023-04-11T08:07:51.371Z,11.36
2023-04-11T08:17:57.979Z,11.53
2023-04-11T08:28:06.053Z,11.70
2023-04-11T08:38:13.135Z,11.92
2023-04-11T08:48:23.187Z,14.37
2023-04-11T08:58:29.780Z,14.34
2023-04-11T09:08:39.780Z,15.20
2023-04-11T09:18:48.151Z,14.30
2023-04-11T09:28:54.956Z,15.20
2023-04-11T09:39:00.736Z,16.00
2023-04-11T09:49:07.423Z,16.07
2023-04-11T09:59:16.068Z,16.92
2023-04-11T10:09:23.324Z,17.60
2023-04-11T10:19:29.839Z,18.03
2023-04-11T10:29:51.426Z,17.69
2023-04-11T10:40:16.311Z,18.55
2023-04-11T10:50:28.618Z,18.38
2023-04-11T11:00:53.856Z,18.46
2023-04-11T11:11:04.782Z,18.57
2023-04-11T11:21:17.104Z,18.56
2023-04-11T11:31:37.433Z,17.91
2023-04-11T11:41:44.039Z,19.33
2023-04-11T11:51:50.959Z,19.60
2023-04-11T12:01:57.692Z,19.49
2023-04-11T12:12:04.537Z,18.91
2023-04-11T12:22:11.058Z,18.69
2023-04-11T12:32:17.614Z,19.30
2023-04-11T12:42:26.942Z,19.42
2023-04-11T12:52:34.676Z,19.28
2023-04-11T13:02:44.467Z,19.12
2023-04-11T13:12:55.179Z,19.25
2023-04-11T13:23:01.701Z,18.96
2023-04-11T13:33:08.674Z,18.65
2023-04-11T13:43:15.206Z,18.18
2023-04-11T13:53:21.726Z,17.87
2023-04-11T14:03:28.852Z,17.16
2023-04-11T14:13:35.493Z,17.29
2023-04-11T14:23:42.010Z,16.73
2023-04-11T14:33:49.304Z,16.04
2023-04-11T14:43:55.987Z,15.47
2023-04-11T14:54:02.677Z,14.74
2023-04-11T15:58:02.199Z,14.27
2023-04-11T16:08:08.774Z,14.27
2023-04-11T16:18:15.270Z,11.72
2023-04-11T16:28:21.771Z,11.53
2023-04-11T16:38:28.715Z,11.17
2023-04-11T16:48:35.253Z,11.01
2023-04-11T16:58:42.050Z,10.65
2023-04-11T17:08:48.612Z,9.86
2023-04-11T17:18:55.202Z,9.47
2023-04-11T17:29:01.846Z,9.07
2023-04-11T17:39:08.393Z,9.05
2023-04-11T17:49:14.916Z,8.82
2023-04-11T17:59:22.433Z,8.72
2023-04-11T18:09:33.136Z,8.51
2023-04-11T18:19:39.583Z,8.48
2023-04-11T18:29:46.745Z,8.42
2023-04-11T18:39:53.385Z,8.23
2023-04-11T18:49:59.837Z,8.15
2023-04-11T19:00:19.227Z,8.20
2023-04-11T19:10:26.095Z,7.96
2023-04-11T19:20:32.608Z,8.13
2023-04-11T19:30:39.365Z,8.20
2023-04-11T19:40:45.803Z,8.24
2023-04-11T19:50:53.180Z,8.16
2023-04-11T20:01:00.338Z,8.14
2023-04-11T20:11:05.408Z,8.09
2023-04-11T20:21:11.931Z,8.14
2023-04-11T20:31:18.456Z,7.98
2023-04-11T20:41:25.884Z,7.99
2023-04-11T20:51:32.438Z,7.92
2023-04-11T21:01:39.058Z,7.76
2023-04-11T21:11:45.571Z,7.65
2023-04-11T21:21:52.447Z,7.52
2023-04-11T21:31:58.955Z,7.36
2023-04-11T21:42:05.548Z,7.36
2023-04-11T21:52:12.155Z,7.24
2023-04-11T22:02:18.859Z,7.18
2023-04-11T22:12:28.048Z,7.09
2023-04-11T22:22:34.881Z,6.96
2023-04-11T22:32:41.376Z,6.87
2023-04-11T22:42:48.351Z,6.70
2023-04-11T22:52:56.154Z,6.65
2023-04-11T23:03:02.681Z,6.56
2023-04-11T23:13:09.904Z,6.60
2023-04-11T23:23:19.819Z,6.62
2023-04-11T23:33:27.083Z,6.62
2023-04-11T23:43:34.220Z,6.66
2023-04-11T23:53:40.665Z,6.62
